VIE weather

Vienna International Airport
Vienna, Vienna, Austria

Public forecast

Using degrees Celsius for public forecast. Weather courtesy of forecast.io.

Current aviation weather report (METAR) for Vienna International Airport

Retrieved 2019/10/21 21:20 UTC (16 minutes ago):

LOWW 212120Z 17004KT 150V210 8000 FEW001 11/10 Q1020 BECMG 3000 BR

Aviation forecast (TAF) for Vienna International Airport

Retrieved 2019/10/21 21:21 UTC (15 minutes ago):

TAF LOWW 212015Z 2121/2303 25005KT 9999 FEW001 TX16/2214Z TN10/2201Z BECMG 2121/2123 VRB02KT 0500 FG VV002 TEMPO 2123/2209 0300 -DZ FG VV001 BECMG 2209/2211 4000 BR FEW004 OVC006 TEMPO 2211/2218 8000 NSW BKN012 BECMG 2221/2223 0500 FG VV001